createdAt,value
2018-06-22T00:01:38.869Z,25.54
2018-06-22T00:04:09.567Z,25.43
2018-06-22T00:06:40.606Z,25.42
2018-06-22T00:09:11.809Z,25.53
2018-06-22T00:11:42.521Z,25.44
2018-06-22T00:14:12.617Z,25.45
2018-06-22T00:16:43.500Z,25.46
2018-06-22T00:19:14.162Z,25.46
2018-06-22T00:21:44.922Z,25.40
2018-06-22T00:24:15.736Z,25.29
2018-06-22T00:26:46.453Z,25.44
2018-06-22T00:29:17.146Z,25.42
2018-06-22T00:31:47.926Z,25.52
2018-06-22T00:34:18.673Z,25.50
2018-06-22T00:36:49.526Z,25.59
2018-06-22T00:39:20.239Z,25.66
2018-06-22T00:41:50.978Z,25.68
2018-06-22T00:44:21.608Z,25.64
2018-06-22T00:46:52.417Z,25.70
2018-06-22T00:49:22.898Z,25.04
2018-06-22T00:51:53.747Z,24.74
2018-06-22T00:54:23.832Z,24.68
2018-06-22T00:56:54.569Z,24.59
2018-06-22T00:59:25.097Z,24.64
2018-06-22T01:01:55.962Z,24.67
2018-06-22T01:04:26.453Z,24.62
2018-06-22T01:06:57.121Z,24.49
2018-06-22T01:09:27.361Z,24.46
2018-06-22T01:11:58.317Z,24.04
2018-06-22T01:14:28.965Z,23.83
2018-06-22T01:16:59.793Z,23.97
2018-06-22T01:19:30.326Z,24.18
2018-06-22T01:22:01.302Z,24.26
2018-06-22T01:24:31.565Z,24.17
2018-06-22T01:27:02.402Z,24.13
2018-06-22T01:29:33.270Z,23.94
2018-06-22T01:32:04.055Z,24.03
2018-06-22T01:34:34.786Z,24.18
2018-06-22T01:37:05.594Z,24.04
2018-06-22T01:39:36.299Z,24.07
2018-06-22T01:42:07.038Z,23.93
2018-06-22T01:44:37.673Z,23.96
2018-06-22T01:47:08.369Z,23.81
2018-06-22T01:49:39.028Z,23.90
2018-06-22T01:52:09.937Z,23.93
2018-06-22T01:54:40.635Z,24.05
2018-06-22T01:57:10.921Z,23.99
2018-06-22T01:59:41.660Z,24.10
2018-06-22T02:02:12.322Z,24.19
2018-06-22T02:04:43.147Z,24.23
2018-06-22T02:07:13.797Z,24.36
2018-06-22T02:09:44.541Z,24.31
2018-06-22T02:12:15.281Z,24.30
2018-06-22T02:14:47.390Z,24.30
2018-06-22T02:17:18.237Z,24.28
2018-06-22T02:19:48.849Z,24.27
2018-06-22T02:22:19.641Z,24.13
2018-06-22T02:24:50.323Z,24.12
2018-06-22T02:27:21.150Z,24.12
2018-06-22T02:29:51.690Z,24.18
2018-06-22T02:32:22.601Z,24.40
2018-06-22T02:34:53.361Z,24.51
2018-06-22T02:37:24.503Z,24.54
2018-06-22T02:39:55.134Z,24.52
2018-06-22T02:42:25.822Z,24.51
2018-06-22T02:44:56.497Z,24.54
2018-06-22T02:47:27.481Z,24.52
2018-06-22T02:49:58.202Z,24.41
2018-06-22T02:52:29.814Z,24.50
2018-06-22T02:55:00.399Z,24.39
2018-06-22T02:57:31.308Z,24.17
2018-06-22T03:00:01.573Z,24.17
2018-06-22T03:02:32.275Z,23.99
2018-06-22T03:05:02.373Z,24.18
2018-06-22T03:07:33.364Z,24.17
2018-06-22T03:10:06.334Z,24.29
2018-06-22T03:12:37.059Z,24.13
2018-06-22T03:15:07.637Z,24.38
2018-06-22T03:17:38.317Z,24.34
2018-06-22T03:20:08.926Z,24.34
2018-06-22T03:22:39.720Z,24.08
2018-06-22T03:25:10.366Z,24.14
2018-06-22T03:27:41.087Z,24.45
2018-06-22T03:30:11.722Z,24.40
2018-06-22T03:32:42.433Z,24.39
2018-06-22T03:35:13.180Z,24.47
2018-06-22T03:37:44.010Z,24.33
2018-06-22T03:40:14.666Z,24.25
2018-06-22T03:42:45.389Z,24.34
2018-06-22T03:45:16.027Z,24.15
2018-06-22T03:47:47.130Z,24.26
2018-06-22T03:50:17.798Z,24.41
2018-06-22T03:52:48.438Z,24.57
2018-06-22T03:55:19.057Z,24.64
2018-06-22T03:57:49.731Z,24.63
2018-06-22T04:00:20.433Z,24.88
2018-06-22T04:02:51.198Z,24.88
2018-06-22T04:05:21.904Z,25.00
2018-06-22T04:07:52.770Z,25.06
2018-06-22T04:10:23.464Z,25.16
2018-06-22T04:12:54.201Z,25.30
2018-06-22T04:15:24.828Z,25.48
2018-06-22T04:17:56.154Z,25.55
2018-06-22T04:20:27.270Z,25.50
2018-06-22T04:22:58.145Z,25.77
2018-06-22T04:25:28.793Z,25.82
2018-06-22T04:28:00.015Z,25.95
2018-06-22T04:30:30.666Z,26.04
2018-06-22T04:33:01.346Z,26.16
2018-06-22T04:35:31.428Z,26.28
2018-06-22T04:38:02.209Z,26.41
2018-06-22T04:40:32.986Z,26.42
2018-06-22T04:43:03.640Z,26.50
2018-06-22T04:45:33.825Z,26.46
2018-06-22T04:48:04.662Z,26.55
2018-06-22T04:50:35.278Z,26.61
2018-06-22T04:53:06.111Z,26.79
2018-06-22T04:55:36.688Z,27.11
2018-06-22T04:58:07.394Z,27.34
2018-06-22T05:00:38.022Z,27.78
2018-06-22T05:03:08.798Z,28.37
2018-06-22T05:05:38.797Z,28.32
2018-06-22T05:08:09.605Z,28.46
2018-06-22T05:10:40.354Z,29.02
2018-06-22T05:13:11.128Z,28.73
2018-06-22T05:15:41.478Z,29.06
2018-06-22T05:18:12.784Z,28.92
2018-06-22T05:20:43.408Z,29.24
2018-06-22T05:23:14.259Z,29.22
2018-06-22T05:25:44.873Z,29.33
2018-06-22T05:28:15.677Z,29.69
2018-06-22T05:30:46.313Z,29.76
2018-06-22T05:33:17.186Z,29.50
2018-06-22T05:35:47.877Z,30.13
2018-06-22T05:38:18.617Z,30.49
2018-06-22T05:40:49.401Z,30.43
2018-06-22T05:43:19.612Z,30.69
2018-06-22T05:45:50.250Z,31.12
2018-06-22T05:48:20.414Z,31.30
2018-06-22T05:50:51.033Z,31.51
2018-06-22T05:53:21.149Z,31.35
2018-06-22T05:55:51.920Z,31.39
2018-06-22T05:58:22.817Z,31.70
2018-06-22T06:00:53.730Z,31.56
2018-06-22T06:03:24.983Z,31.84
2018-06-22T06:05:55.768Z,32.49
2018-06-22T06:08:26.545Z,32.56
2018-06-22T06:10:56.798Z,32.77
2018-06-22T06:13:27.286Z,32.53
2018-06-22T06:15:57.853Z,32.80
2018-06-22T06:18:28.509Z,33.10
2018-06-22T06:20:59.192Z,33.21
2018-06-22T06:23:29.120Z,32.87
2018-06-22T06:25:59.872Z,33.22
2018-06-22T06:28:30.682Z,33.43
2018-06-22T06:31:01.574Z,33.22
2018-06-22T06:33:32.266Z,33.27
2018-06-22T06:36:03.274Z,33.32
2018-06-22T06:38:33.853Z,33.65
2018-06-22T06:41:04.755Z,33.61
2018-06-22T06:43:35.225Z,33.80
2018-06-22T06:46:05.596Z,33.67
2018-06-22T06:48:36.298Z,34.01
2018-06-22T06:51:06.986Z,34.21
2018-06-22T06:53:37.685Z,34.45
2018-06-22T06:56:08.426Z,34.97
2018-06-22T06:59:16.758Z,34.80
2018-06-22T07:01:47.582Z,34.79
2018-06-22T07:04:20.398Z,35.10
2018-06-22T07:06:52.996Z,35.37
2018-06-22T07:09:23.641Z,35.85
2018-06-22T07:11:54.997Z,35.30
2018-06-22T07:14:25.732Z,35.27
2018-06-22T07:16:56.425Z,35.93
2018-06-22T07:19:27.097Z,36.20
2018-06-22T07:21:57.914Z,35.23
2018-06-22T07:24:28.605Z,35.70
2018-06-22T07:26:59.390Z,36.20
2018-06-22T07:29:31.825Z,36.63
2018-06-22T07:32:02.691Z,36.98
2018-06-22T07:34:33.385Z,37.68
2018-06-22T07:37:04.429Z,37.69
2018-06-22T07:39:34.944Z,37.59
2018-06-22T07:42:05.277Z,37.51
2018-06-22T07:44:36.084Z,37.26
2018-06-22T07:47:06.923Z,35.85
2018-06-22T07:49:37.650Z,36.80
2018-06-22T07:52:08.530Z,36.92
2018-06-22T07:54:39.117Z,37.81
2018-06-22T07:57:09.962Z,37.51
2018-06-22T07:59:40.082Z,37.46
2018-06-22T08:02:10.781Z,36.13
2018-06-22T08:04:41.574Z,36.29
2018-06-22T08:07:12.437Z,36.64
2018-06-22T08:09:43.037Z,37.62
2018-06-22T08:12:13.918Z,37.46
2018-06-22T08:14:44.743Z,37.47
2018-06-22T08:17:15.553Z,37.42
2018-06-22T08:19:46.341Z,37.93
2018-06-22T08:22:16.993Z,37.78
2018-06-22T08:24:47.265Z,36.91
2018-06-22T08:27:17.973Z,37.32
2018-06-22T08:29:48.714Z,37.94
2018-06-22T08:32:19.610Z,37.94
2018-06-22T08:34:50.357Z,37.74
2018-06-22T08:37:20.834Z,38.69
2018-06-22T08:39:51.606Z,37.65
2018-06-22T08:42:22.390Z,37.57
2018-06-22T08:44:53.114Z,37.66
2018-06-22T08:47:23.849Z,38.08
2018-06-22T08:49:54.377Z,38.63
2018-06-22T08:52:25.129Z,38.90
2018-06-22T08:54:55.625Z,38.43
2018-06-22T08:57:26.386Z,38.76
2018-06-22T08:59:57.058Z,37.76
2018-06-22T09:02:27.790Z,38.98
2018-06-22T09:04:58.422Z,39.71
2018-06-22T09:07:29.171Z,38.27
2018-06-22T09:09:59.883Z,39.49
2018-06-22T09:12:30.593Z,38.06
2018-06-22T09:15:01.256Z,39.07
2018-06-22T09:17:32.191Z,38.29
2018-06-22T09:20:02.752Z,38.07
2018-06-22T09:22:33.548Z,38.34
2018-06-22T09:25:04.251Z,38.67
2018-06-22T09:27:35.126Z,38.82
2018-06-22T09:30:06.063Z,39.32
2018-06-22T09:32:37.185Z,39.14
2018-06-22T09:35:08.809Z,39.69
2018-06-22T09:37:39.681Z,40.64
2018-06-22T09:40:10.198Z,38.11
2018-06-22T09:42:40.884Z,38.30
2018-06-22T09:45:11.552Z,39.14
2018-06-22T09:47:42.217Z,39.20
2018-06-22T09:50:12.315Z,38.86
2018-06-22T09:52:42.966Z,39.61
2018-06-22T09:55:13.808Z,39.35
2018-06-22T09:57:44.526Z,39.80
2018-06-22T10:00:15.964Z,40.19
2018-06-22T10:02:46.638Z,39.68
2018-06-22T10:05:17.566Z,39.39
2018-06-22T10:07:47.949Z,39.11
2018-06-22T10:10:18.692Z,39.72
2018-06-22T10:12:49.465Z,40.08
2018-06-22T10:15:20.149Z,40.08
2018-06-22T10:17:50.273Z,40.30
2018-06-22T10:20:21.138Z,40.73
2018-06-22T10:22:51.885Z,39.88
2018-06-22T10:25:22.661Z,39.49
2018-06-22T10:27:53.460Z,39.87
2018-06-22T10:30:24.957Z,40.73
2018-06-22T10:32:55.640Z,39.71
2018-06-22T10:35:26.453Z,39.94
2018-06-22T10:37:57.108Z,40.60
2018-06-22T10:40:27.958Z,39.57
2018-06-22T10:42:58.154Z,40.11
2018-06-22T10:45:28.909Z,41.14
2018-06-22T10:47:59.561Z,40.38
2018-06-22T10:50:29.922Z,39.32
2018-06-22T10:53:00.514Z,40.55
2018-06-22T10:55:31.766Z,41.57
2018-06-22T10:58:02.471Z,41.18
2018-06-22T11:00:33.601Z,39.57
2018-06-22T11:03:04.462Z,40.52
2018-06-22T11:05:35.368Z,40.56
2018-06-22T11:08:06.038Z,40.81
2018-06-22T11:10:36.785Z,40.74
2018-06-22T11:13:07.488Z,41.19
2018-06-22T11:15:38.318Z,40.08
2018-06-22T11:18:09.162Z,40.45
2018-06-22T11:20:39.961Z,40.46
2018-06-22T11:23:10.725Z,39.51
2018-06-22T11:25:41.478Z,39.63
2018-06-22T11:28:12.194Z,39.52
2018-06-22T11:30:43.300Z,39.75
2018-06-22T11:33:13.938Z,39.86
2018-06-22T11:35:44.713Z,40.51
2018-06-22T11:38:15.289Z,39.72
2018-06-22T11:40:45.468Z,39.74
2018-06-22T11:43:16.216Z,40.01
2018-06-22T11:45:47.182Z,40.94
2018-06-22T11:48:17.500Z,40.26
2018-06-22T11:50:48.319Z,39.92
2018-06-22T11:53:19.065Z,39.91
2018-06-22T11:55:49.964Z,40.17
2018-06-22T11:58:20.700Z,40.31
2018-06-22T12:00:51.577Z,40.42
2018-06-22T12:03:22.265Z,40.50
2018-06-22T12:05:53.101Z,40.78
2018-06-22T12:08:23.761Z,40.92
2018-06-22T12:10:54.017Z,40.26
2018-06-22T12:13:24.606Z,41.10
2018-06-22T12:15:54.909Z,41.23
2018-06-22T12:18:25.489Z,41.18
2018-06-22T12:20:56.381Z,41.02
2018-06-22T12:23:26.977Z,40.68
2018-06-22T12:25:57.929Z,41.55
2018-06-22T12:28:28.618Z,42.15
2018-06-22T12:30:59.370Z,42.96
2018-06-22T12:33:29.451Z,40.48
2018-06-22T12:35:59.903Z,40.99
2018-06-22T12:38:30.754Z,40.11
2018-06-22T12:41:01.594Z,40.29
2018-06-22T12:43:32.370Z,39.90
2018-06-22T12:46:03.111Z,39.98
2018-06-22T12:48:33.846Z,40.09
2018-06-22T12:51:04.685Z,40.13
2018-06-22T12:53:35.444Z,41.13
2018-06-22T12:56:07.014Z,41.88
2018-06-22T12:58:37.931Z,42.77
2018-06-22T13:01:08.709Z,41.68
2018-06-22T13:03:39.490Z,41.13
2018-06-22T13:06:10.346Z,41.65
2018-06-22T13:08:40.975Z,40.74
2018-06-22T13:11:11.940Z,40.38
2018-06-22T13:13:42.698Z,40.52
2018-06-22T13:16:13.790Z,40.53
2018-06-22T13:18:44.377Z,40.49
2018-06-22T13:21:14.785Z,40.21
2018-06-22T13:23:45.485Z,39.42
2018-06-22T13:26:16.429Z,38.40
2018-06-22T13:28:47.182Z,38.59
2018-06-22T13:31:17.918Z,39.65
2018-06-22T13:33:48.385Z,38.88
2018-06-22T13:36:19.318Z,38.29
2018-06-22T13:38:50.009Z,38.71
2018-06-22T13:41:21.205Z,37.75
2018-06-22T13:43:51.802Z,38.02
2018-06-22T13:46:22.613Z,38.00
2018-06-22T13:48:54.082Z,38.17
2018-06-22T13:51:24.809Z,36.57
2018-06-22T13:53:55.454Z,36.46
2018-06-22T13:56:26.386Z,36.33
2018-06-22T13:58:57.043Z,36.11
2018-06-22T14:01:27.643Z,35.88
2018-06-22T14:04:03.513Z,35.84
2018-06-22T14:06:39.370Z,35.56
2018-06-22T14:09:12.770Z,35.31
2018-06-22T14:11:43.480Z,35.46
2018-06-22T14:14:14.650Z,35.57
2018-06-22T14:16:44.993Z,35.28
2018-06-22T14:19:15.768Z,35.70
2018-06-22T14:21:46.650Z,35.39
2018-06-22T14:24:17.477Z,35.85
2018-06-22T14:26:49.305Z,36.04
2018-06-22T14:29:20.073Z,35.76
2018-06-22T14:31:50.902Z,35.52
2018-06-22T14:34:20.924Z,35.43
2018-06-22T14:36:51.543Z,34.97
2018-06-22T14:39:22.387Z,35.16
2018-06-22T14:41:53.034Z,34.88
2018-06-22T14:44:23.826Z,34.87
2018-06-22T14:46:54.495Z,34.73
2018-06-22T14:49:25.065Z,34.92
2018-06-22T14:52:02.722Z,34.95
2018-06-22T14:54:38.719Z,35.02
2018-06-22T14:57:14.434Z,35.12
2018-06-22T14:59:50.240Z,35.11
2018-06-22T15:02:25.762Z,35.11
2018-06-22T15:05:01.373Z,34.84
2018-06-22T15:07:36.949Z,34.99
2018-06-22T15:10:07.875Z,34.89
2018-06-22T15:12:38.503Z,34.80
2018-06-22T15:15:09.293Z,34.59
2018-06-22T15:17:55.056Z,34.74
2018-06-22T15:20:25.820Z,34.67
2018-06-22T15:22:56.455Z,34.37
2018-06-22T15:25:27.365Z,34.46
2018-06-22T15:27:58.110Z,34.36
2018-06-22T15:30:28.731Z,34.27
2018-06-22T15:32:59.337Z,34.60
2018-06-22T15:35:34.936Z,34.54
2018-06-22T15:38:10.785Z,34.13
2018-06-22T15:40:46.615Z,33.96
2018-06-22T15:43:22.288Z,33.74
2018-06-22T15:46:08.790Z,33.72
2018-06-22T15:48:50.629Z,34.04
2018-06-22T15:51:25.701Z,33.88
2018-06-22T15:54:58.921Z,33.74
2018-06-22T15:57:29.629Z,33.74
2018-06-22T16:00:00.376Z,33.81
2018-06-22T16:02:36.270Z,33.68
2018-06-22T16:05:06.465Z,34.00
2018-06-22T16:07:37.214Z,34.35
2018-06-22T16:10:07.870Z,34.49
2018-06-22T16:12:40.177Z,34.75
2018-06-22T16:15:17.681Z,34.84
2018-06-22T16:17:54.313Z,34.54
2018-06-22T16:20:29.785Z,34.54
2018-06-22T16:23:05.229Z,34.11
2018-06-22T16:25:40.900Z,34.28
2018-06-22T16:28:11.713Z,34.11
2018-06-22T16:30:42.513Z,33.78
2018-06-22T16:33:12.713Z,34.09
2018-06-22T16:35:43.528Z,34.06
2018-06-22T16:38:14.297Z,33.89
2018-06-22T16:40:45.092Z,33.93
2018-06-22T16:43:15.923Z,33.69
2018-06-22T16:45:46.564Z,33.55
2018-06-22T16:48:17.340Z,33.37
2018-06-22T16:50:48.025Z,33.25
2018-06-22T16:53:19.517Z,33.13
2018-06-22T16:55:49.561Z,33.29
2018-06-22T16:58:25.150Z,33.23
2018-06-22T17:00:55.838Z,33.07
2018-06-22T17:03:26.610Z,32.51
2018-06-22T17:05:57.400Z,32.37
2018-06-22T17:08:33.266Z,32.44
2018-06-22T17:11:08.916Z,32.18
2018-06-22T17:13:45.051Z,32.01
2018-06-22T17:16:20.586Z,31.81
2018-06-22T17:18:57.432Z,31.45
2018-06-22T17:21:28.085Z,31.40
2018-06-22T17:23:59.130Z,31.44
2018-06-22T17:26:29.718Z,31.29
2018-06-22T17:29:00.416Z,31.16
2018-06-22T17:31:31.070Z,31.18
2018-06-22T17:34:01.802Z,31.31
2018-06-22T17:36:32.526Z,31.06
2018-06-22T17:39:03.435Z,31.22
2018-06-22T17:41:34.026Z,31.42
2018-06-22T17:44:04.922Z,31.28
2018-06-22T17:46:35.730Z,31.28
2018-06-22T17:49:06.453Z,31.23
2018-06-22T17:51:37.126Z,31.28
2018-06-22T17:54:08.170Z,31.25
2018-06-22T17:56:38.717Z,31.22
2018-06-22T17:59:14.630Z,31.27
2018-06-22T18:01:50.257Z,31.08
2018-06-22T18:04:25.751Z,30.82
2018-06-22T18:07:01.701Z,30.81
2018-06-22T18:09:37.039Z,30.93
2018-06-22T18:12:12.463Z,30.77
2018-06-22T18:14:43.257Z,30.75
2018-06-22T18:17:14.056Z,30.72
2018-06-22T18:19:44.621Z,30.92
2018-06-22T18:22:15.150Z,30.84
2018-06-22T18:24:45.901Z,30.96
2018-06-22T18:27:16.518Z,30.76
2018-06-22T18:29:47.350Z,30.69
2018-06-22T18:32:18.018Z,30.76
2018-06-22T18:34:48.525Z,30.74
2018-06-22T18:37:18.817Z,30.42
2018-06-22T18:39:49.880Z,30.59
2018-06-22T18:42:20.030Z,30.72
2018-06-22T18:44:50.661Z,30.62
2018-06-22T18:47:21.270Z,30.71
2018-06-22T18:49:52.057Z,30.61
2018-06-22T18:52:27.392Z,30.49
2018-06-22T18:57:08.552Z,30.47
2018-06-22T18:59:47.889Z,30.44
2018-06-22T19:02:23.766Z,30.38
2018-06-22T19:04:54.344Z,30.24
2018-06-22T19:07:25.141Z,30.18
2018-06-22T19:09:55.313Z,29.95
2018-06-22T19:12:25.709Z,30.04
2018-06-22T19:14:56.318Z,29.76
2018-06-22T19:17:26.930Z,29.76
2018-06-22T19:19:57.526Z,29.77
2018-06-22T19:22:28.269Z,29.63
2018-06-22T19:24:58.948Z,29.42
2018-06-22T19:27:29.686Z,29.43
2018-06-22T19:30:00.417Z,29.45
2018-06-22T19:32:31.544Z,29.38
2018-06-22T19:35:07.210Z,29.24
2018-06-22T19:37:37.889Z,29.18
2018-06-22T19:40:08.706Z,29.05
2018-06-22T19:42:39.494Z,29.11
2018-06-22T19:45:15.256Z,28.93
2018-06-22T19:47:50.940Z,28.80
2018-06-22T19:50:26.422Z,28.76
2018-06-22T19:53:02.258Z,28.65
2018-06-22T19:55:33.003Z,28.84
2018-06-22T19:58:05.074Z,28.75
2018-06-22T20:00:35.815Z,28.67
2018-06-22T20:03:06.632Z,28.52
2018-06-22T20:05:37.405Z,28.56
2018-06-22T20:08:08.073Z,28.46
2018-06-22T20:10:38.189Z,28.39
2018-06-22T20:13:08.794Z,28.35
2018-06-22T20:15:39.706Z,28.20
2018-06-22T20:18:10.356Z,27.88
2018-06-22T20:20:41.125Z,27.49
2018-06-22T20:23:11.923Z,27.69
2018-06-22T20:25:45.705Z,27.41
2018-06-22T20:28:17.410Z,27.38
2018-06-22T20:30:48.654Z,27.21
2018-06-22T20:33:21.753Z,26.88
2018-06-22T20:35:57.557Z,26.97
2018-06-22T20:38:33.230Z,27.02
2018-06-22T20:41:08.910Z,27.25
2018-06-22T20:43:44.126Z,27.13
2018-06-22T20:46:19.046Z,27.25
2018-06-22T20:48:54.688Z,27.18
2018-06-22T20:51:30.574Z,27.12
2018-06-22T20:54:01.330Z,27.29
2018-06-22T20:56:32.042Z,27.27
2018-06-22T20:59:02.149Z,27.42
2018-06-22T21:01:32.866Z,27.69
2018-06-22T21:04:03.875Z,27.66
2018-06-22T21:06:34.603Z,27.76
2018-06-22T21:09:06.706Z,27.76
2018-06-22T21:11:37.009Z,27.75
2018-06-22T21:14:09.354Z,27.59
2018-06-22T21:16:39.633Z,27.63
2018-06-22T21:19:10.654Z,27.54
2018-06-22T21:21:46.289Z,27.76
2018-06-22T21:24:16.919Z,27.47
2018-06-22T21:26:47.569Z,27.57
2018-06-22T21:29:23.304Z,27.78
2018-06-22T21:31:58.817Z,27.68
2018-06-22T21:34:33.804Z,27.71
2018-06-22T21:37:09.248Z,27.62
2018-06-22T21:39:40.093Z,27.48
2018-06-22T21:42:10.682Z,27.67
2018-06-22T21:44:41.574Z,27.59
2018-06-22T21:47:11.873Z,27.33
2018-06-22T21:49:43.046Z,27.14
2018-06-22T21:52:13.634Z,27.25
2018-06-22T21:54:44.570Z,27.15
2018-06-22T21:57:15.213Z,27.11
2018-06-22T21:59:46.001Z,27.07
2018-06-22T22:02:16.626Z,27.13
2018-06-22T22:04:47.802Z,27.07
2018-06-22T22:07:18.672Z,26.95
2018-06-22T22:09:49.253Z,26.78
2018-06-22T22:12:19.834Z,26.63
2018-06-22T22:14:50.650Z,26.38
2018-06-22T22:17:21.346Z,26.36
2018-06-22T22:19:52.393Z,26.35
2018-06-22T22:22:22.981Z,26.37
2018-06-22T22:24:53.727Z,26.44
2018-06-22T22:27:23.725Z,26.48
2018-06-22T22:29:54.537Z,26.33
2018-06-22T22:32:25.170Z,26.45
2018-06-22T22:34:55.748Z,26.23
2018-06-22T22:37:25.893Z,26.43
2018-06-22T22:39:56.525Z,26.32
2018-06-22T22:42:27.093Z,26.30
2018-06-22T22:44:57.811Z,26.36
2018-06-22T22:47:28.445Z,26.50
2018-06-22T22:49:59.110Z,26.42
2018-06-22T22:52:29.821Z,26.52
2018-06-22T22:55:00.761Z,26.46
2018-06-22T22:57:31.377Z,26.44
2018-06-22T23:00:02.054Z,26.42
2018-06-22T23:02:32.041Z,26.55
2018-06-22T23:05:02.761Z,26.60
2018-06-22T23:07:33.678Z,26.47
2018-06-22T23:10:04.421Z,26.47
2018-06-22T23:12:35.325Z,26.77
2018-06-22T23:15:06.142Z,26.83
2018-06-22T23:17:36.656Z,26.81
2018-06-22T23:20:07.574Z,26.79
2018-06-22T23:22:54.257Z,26.98
2018-06-22T23:25:24.836Z,26.81
2018-06-22T23:27:55.497Z,26.82
2018-06-22T23:30:26.222Z,26.86
2018-06-22T23:32:56.903Z,26.84
2018-06-22T23:35:27.465Z,26.75
2018-06-22T23:37:58.233Z,26.85
2018-06-22T23:40:28.902Z,26.82
2018-06-22T23:42:59.618Z,26.72
2018-06-22T23:45:30.418Z,26.68
2018-06-22T23:48:01.161Z,26.77
2018-06-22T23:50:31.257Z,26.69
2018-06-22T23:53:01.943Z,26.76
2018-06-22T23:55:32.677Z,26.60
2018-06-22T23:58:03.415Z,26.87
